27. Mai 2022

Uhrzeit Code Wetter Temp. Sichtweite Wolkendecke Wind METAR/SPECI
7:30 pm
V
75 °F 6¼ mi+ - 240° 240° 7 kt METAR LESU 271730Z 24007KT 200V270 9999 FEW060 FEW070TCU 24/10 Q1019
7:00 pm
V
77 °F 6¼ mi+ - 230° 230° 6 kt METAR LESU 271700Z 23006KT 200V260 9999 FEW060 FEW070TCU 25/11 Q1019
6:30 pm
V
77 °F 6¼ mi+ - 230° 230° 7 kt METAR LESU 271630Z 23007KT 200V270 9999 FEW060 FEW070TCU 25/11 Q1019
6:00 pm
V
75 °F 6¼ mi+ - 230° 230° 7 kt METAR LESU 271600Z 23007KT 170V270 9999 FEW060 SCT070TCU 24/10 Q1019
5:30 pm
V
75 °F 6¼ mi+ - 230° 230° 8 kt METAR LESU 271530Z 23008KT 200V270 9999 FEW060 SCT070TCU 24/11 Q1019
5:00 pm
V
77 °F 6¼ mi+ - 230° 230° 8 kt METAR LESU 271500Z 23008KT 200V260 9999 FEW060 SCT070TCU 25/11 Q1020
4:30 pm
V
77 °F 6¼ mi+ 7.000 ft 230° 230° 8 kt METAR LESU 271430Z 23008KT 200V260 9999 FEW060 BKN070TCU 25/10 Q1020
4:00 pm
V
79 °F 6¼ mi+ 7.000 ft 240° 240° 9 kt METAR LESU 271400Z 24009KT 200V290 9999 FEW060 BKN070TCU 26/10 Q1020
3:30 pm
V
79 °F 6¼ mi+ 7.000 ft 230° 230° 7 kt METAR LESU 271330Z 23007KT 190V270 9999 FEW060 BKN070TCU 26/09 Q1020
3:00 pm
V
79 °F 6¼ mi+ - 230° 230° 6 kt METAR LESU 271300Z 23006KT 200V270 9999 FEW060 SCT070TCU 26/09 Q1020
2:30 pm
V
81 °F 6¼ mi+ - Var Var 3 kt METAR LESU 271230Z VRB03KT 9999 FEW060 SCT070TCU 27/07 Q1020
2:00 pm
V
81 °F 6¼ mi+ - 090° 090° 7 kt METAR LESU 271200Z 09007KT 040V130 9999 FEW060 FEW070TCU 27/07 Q1020
1:30 pm
V
81 °F 6¼ mi+ - 050° 050° 5 kt METAR LESU 271130Z 05005KT 340V140 9999 FEW060 27/07 Q1020
1:00 pm
V
79 °F 6¼ mi+ - 090° 090° 4 kt METAR LESU 271100Z 09004KT 040V200 9999 FEW060 26/07 Q1021
12:30 pm
V
75 °F 6¼ mi+ - 090° 090° 4 kt METAR LESU 271030Z 09004KT 010V150 9999 FEW060 24/08 Q1021
12:00 pm
V
72 °F 6¼ mi+ - Var Var 3 kt METAR LESU 271000Z VRB03KT 9999 FEW060 22/06 Q1021
11:30 am
V
70 °F 6¼ mi+ - Var Var 3 kt METAR LESU 270930Z VRB03KT 9999 FEW050 21/07 Q1022
11:00 am
V
66 °F 6¼ mi+ - Var Var 4 kt METAR LESU 270900Z VRB04KT 9999 FEW050 19/06 Q1022
10:30 am
V
64 °F 6¼ mi+ - Var Var 2 kt METAR LESU 270830Z VRB02KT CAVOK 18/06 Q1022
10:00 am
V
61 °F 6¼ mi+ - 060° 060° 4 kt METAR LESU 270800Z 06004KT 350V110 CAVOK 16/06 Q1023

26. Mai 2022

Uhrzeit Code Wetter Temp. Sichtweite Wolkendecke Wind METAR/SPECI
5:30 pm
V
75 °F 6¼ mi+ - 360° 360° 14 kt METAR LESU 261530Z 36014KT 340V040 9999 FEW060 24/03 Q1021
5:00 pm
V
75 °F 6¼ mi+ - 360° 360° 14 kt METAR LESU 261500Z 36014KT 340V040 9999 FEW060 24/03 Q1021
4:30 pm
V
75 °F 6¼ mi+ - 010° 010° 11 kt METAR LESU 261430Z 01011KT 330V040 9999 FEW060 24/03 Q1021
4:00 pm
V
75 °F 6¼ mi+ - 030° 030° 15 kt METAR LESU 261400Z 03015KT 340V060 9999 FEW060 24/03 Q1021
3:30 pm
V
75 °F 6¼ mi+ - 030° 030° 15 kt METAR LESU 261330Z 03015KT 360V060 9999 FEW060 24/03 Q1022
3:00 pm
V
75 °F 6¼ mi+ - 010° 010° 14 kt METAR LESU 261300Z 01014KT 340V040 9999 FEW060 24/03 Q1022
2:30 pm
V
72 °F 6¼ mi+ - 360° 360° 16 kt METAR LESU 261230Z 36016KT 340V040 9999 FEW060 22/03 Q1022
2:00 pm
V
73 °F 6¼ mi+ - 010° 010° 14 kt METAR LESU 261200Z 01014KT 340V050 9999 FEW060 23/04 Q1023
1:30 pm
V
73 °F 6¼ mi+ - 040° 040° 13 kt METAR LESU 261130Z 04013KT 010V080 9999 FEW060 23/04 Q1023
1:00 pm
V
70 °F 6¼ mi+ - Var Var 5 kt METAR LESU 261100Z VRB05KT 9999 FEW060 21/03 Q1023
12:30 pm
V
68 °F 6¼ mi+ - Var Var 4 kt METAR LESU 261030Z VRB04KT 9999 FEW060 20/03 Q1023
12:00 pm
V
66 °F 6¼ mi+ - 030° 030° 5 kt METAR LESU 261000Z 03005KT 350V070 9999 FEW050 19/02 Q1024
11:30 am
V
64 °F 6¼ mi+ - 070° 070° 5 kt METAR LESU 260930Z 07005KT 020V120 9999 FEW050 18/01 Q1024
11:00 am
V
64 °F 6¼ mi+ - 050° 050° 9 kt METAR LESU 260900Z 05009KT CAVOK 18/02 Q1024
10:30 am
V
63 °F 6¼ mi+ - 080° 080° 6 kt METAR LESU 260830Z 08006KT 040V120 CAVOK 17/02 Q1024
10:00 am
V
61 °F 6¼ mi+ - 080° 080° 4 kt METAR LESU 260800Z 08004KT 030V140 CAVOK 16/04 Q1025

25. Mai 2022

Uhrzeit Code Wetter Temp. Sichtweite Wolkendecke Wind METAR/SPECI
6:30 pm
V
63 °F 6¼ mi+ - 360° 360° 12 kt METAR LESU 251630Z 36012KT 330V040 9999 FEW060 17/01 Q1020
6:00 pm
V
64 °F 6¼ mi+ - 030° 030° 16 - 26 kt METAR LESU 251600Z 03016G26KT 340V050 9999 FEW060 18/02 Q1020
5:30 pm
V
64 °F 6¼ mi+ - 030° 030° 16 kt METAR LESU 251530Z 03016KT 9999 FEW060 18/01 Q1019
5:00 pm
V
64 °F 6¼ mi+ - 030° 030° 15 kt METAR LESU 251500Z 03015KT 340V050 9999 FEW070 18/02 Q1019
Ältere Daten

Laden Sie unsere App herunter

Einfacher Zugriff auf das gesamte Flugwetter auf Ihrem Mobiltelefon und Tablet.
Mit vielen Funktionen, die auf der Website nicht verfügbar sind, wie Offline-Unterstützung und eine persönliche Flughafenliste.

Wir und Dritte verfolgen dein Internetverhalten auf unserer Website mit Cookies. Wenn du fortfährst, gehen wir davon aus, dass du mit unserer Cookie-Richtlinie einverstanden bist. Mehr erfahren